PWSweather.com
Personal Weather Stations
Station Observations
KJ4AJP
Beautiful Downtown Gardner, Martin, TN 38237

Beautiful Downtown GardnerMartin, TN 38237

Lat: 36.358, Lon: -88.8994

Elevation: 384.3

Station Type: TP1080WC

http://weather.mambm.com/

High Low Average
Temperature 61.9°F16.6°C 28.8°F-1.8°C 42.9°F6.1°C
Dew Point 45.8°F7.7°C 28.5°F-1.9°C 36.1°F2.3°C
Winds 8.3 mph 13.4 kmh Calm Calm 3.0 mph SSE4.8 kmh SSE
Wind Gusts 15.9 mph25.6 kmh 1.6 mph2.6 kmh 6.0 mph9.7 kmh
Humidity 99% 52% 79%
Pressure 30.46 in1031.5 mb 30.35 in1027.8 mb -
Precipitation 0.00 in0.0 mm - -
Hour Temp Dew Point Humidity Winds Wind Gusts Pressure Precip Precip Rate Daily Precip Total
12:00 AM 29.1°F-1.6°C 28.9°F-1.7°C 99% 0.7 mph SE1.1 kmh SE 3.8 mph6.1 kmh 30.39 in1029.1 mb 0.00 in0.0 mm 0.00 in0.0 mm 0.00 in0.0 mm
12:15 AM 29.1°F-1.6°C 28.9°F-1.7°C 99% 0.7 mph SE1.1 kmh SE 2.2 mph3.5 kmh 30.39 in1029.1 mb 0.00 in0.0 mm 0.00 in0.0 mm 0.00 in0.0 mm
12:30 AM 29.1°F-1.6°C 28.9°F-1.7°C 99% 0.7 mph SE1.1 kmh SE 2.2 mph3.5 kmh 30.39 in1029.1 mb 0.00 in0.0 mm 0.00 in0.0 mm 0.00 in0.0 mm
12:45 AM 28.9°F-1.7°C 28.7°F-1.8°C 99% 0.7 mph SE1.1 kmh SE 2.2 mph3.5 kmh 30.39 in1029.1 mb 0.00 in0.0 mm 0.00 in0.0 mm 0.00 in0.0 mm
01:00 AM 29.3°F-1.5°C 29.1°F-1.6°C 99% 1.6 mph SE2.6 kmh SE 3.1 mph5.0 kmh 30.39 in1029.1 mb 0.00 in0.0 mm 0.00 in0.0 mm 0.00 in0.0 mm
01:15 AM 29.3°F-1.5°C 29.1°F-1.6°C 99% 1.6 mph SE2.6 kmh SE 3.1 mph5.0 kmh 30.39 in1029.1 mb 0.00 in0.0 mm 0.00 in0.0 mm 0.00 in0.0 mm
01:30 AM 29.5°F-1.4°C 29.2°F-1.6°C 99% 0.7 mph SE1.1 kmh SE 3.1 mph5.0 kmh 30.39 in1029.1 mb 0.00 in0.0 mm 0.00 in0.0 mm 0.00 in0.0 mm
01:45 AM 29.7°F-1.3°C 29.4°F-1.4°C 99% 1.6 mph SE2.6 kmh SE 3.8 mph6.1 kmh 30.39 in1029.1 mb 0.00 in0.0 mm 0.00 in0.0 mm 0.00 in0.0 mm
02:00 AM 29.7°F-1.3°C 29.4°F-1.4°C 99% 1.6 mph SE2.6 kmh SE 3.1 mph5.0 kmh 30.39 in1029.1 mb 0.00 in0.0 mm 0.00 in0.0 mm 0.00 in0.0 mm
02:15 AM 30.0°F-1.1°C 29.8°F-1.2°C 99% 1.6 mph SE2.6 kmh SE 3.1 mph5.0 kmh 30.39 in1029.1 mb 0.00 in0.0 mm 0.00 in0.0 mm 0.00 in0.0 mm
02:30 AM 30.0°F-1.1°C 29.8°F-1.2°C 99% 1.6 mph SE2.6 kmh SE 2.2 mph3.5 kmh 30.40 in1029.5 mb 0.00 in0.0 mm 0.00 in0.0 mm 0.00 in0.0 mm
02:45 AM 30.0°F-1.1°C 29.8°F-1.2°C 99% 0.7 mph SE1.1 kmh SE 3.8 mph6.1 kmh 30.40 in1029.5 mb 0.00 in0.0 mm 0.00 in0.0 mm 0.00 in0.0 mm
03:00 AM 29.8°F-1.2°C 29.6°F-1.3°C 99% 0.7 mph SE1.1 kmh SE 2.2 mph3.5 kmh 30.40 in1029.5 mb 0.00 in0.0 mm 0.00 in0.0 mm 0.00 in0.0 mm
03:15 AM 29.5°F-1.4°C 29.2°F-1.6°C 99% 1.6 mph SE2.6 kmh SE 3.1 mph5.0 kmh 30.40 in1029.5 mb 0.00 in0.0 mm 0.00 in0.0 mm 0.00 in0.0 mm
03:30 AM 29.5°F-1.4°C 29.2°F-1.6°C 99% 0.7 mph SE1.1 kmh SE 3.1 mph5.0 kmh 30.41 in1029.8 mb 0.00 in0.0 mm 0.00 in0.0 mm 0.00 in0.0 mm
03:45 AM 29.1°F-1.6°C 28.9°F-1.7°C 99% 0.7 mph SE1.1 kmh SE 3.1 mph5.0 kmh 30.40 in1029.5 mb 0.00 in0.0 mm 0.00 in0.0 mm 0.00 in0.0 mm
04:00 AM 28.9°F-1.7°C 28.7°F-1.8°C 99% 1.6 mph SE2.6 kmh SE 3.1 mph5.0 kmh 30.40 in1029.5 mb 0.00 in0.0 mm 0.00 in0.0 mm 0.00 in0.0 mm
04:15 AM 29.1°F-1.6°C 28.9°F-1.7°C 99% 1.6 mph SE2.6 kmh SE 3.1 mph5.0 kmh 30.40 in1029.5 mb 0.00 in0.0 mm 0.00 in0.0 mm 0.00 in0.0 mm
04:30 AM 29.3°F-1.5°C 29.1°F-1.6°C 99% 1.6 mph SE2.6 kmh SE 3.1 mph5.0 kmh 30.41 in1029.8 mb 0.00 in0.0 mm 0.00 in0.0 mm 0.00 in0.0 mm
04:45 AM 29.3°F-1.5°C 29.1°F-1.6°C 99% 1.6 mph SE2.6 kmh SE 3.8 mph6.1 kmh 30.41 in1029.8 mb 0.00 in0.0 mm 0.00 in0.0 mm 0.00 in0.0 mm
05:00 AM 29.1°F-1.6°C 28.9°F-1.7°C 99% 1.6 mph SE2.6 kmh SE 3.1 mph5.0 kmh 30.42 in1030.1 mb 0.00 in0.0 mm 0.00 in0.0 mm 0.00 in0.0 mm
05:15 AM 29.1°F-1.6°C 28.9°F-1.7°C 99% 2.2 mph SE3.5 kmh SE 3.1 mph5.0 kmh 30.40 in1029.5 mb 0.00 in0.0 mm 0.00 in0.0 mm 0.00 in0.0 mm
05:30 AM 29.1°F-1.6°C 28.9°F-1.7°C 99% 1.6 mph SSE2.6 kmh SSE 3.8 mph6.1 kmh 30.42 in1030.1 mb 0.00 in0.0 mm 0.00 in0.0 mm 0.00 in0.0 mm
05:45 AM 28.9°F-1.7°C 28.7°F-1.8°C 99% 2.2 mph SE3.5 kmh SE 3.8 mph6.1 kmh 30.42 in1030.1 mb 0.00 in0.0 mm 0.00 in0.0 mm 0.00 in0.0 mm
06:00 AM 28.9°F-1.7°C 28.7°F-1.8°C 99% 1.6 mph SE2.6 kmh SE 3.1 mph5.0 kmh 30.42 in1030.1 mb 0.00 in0.0 mm 0.00 in0.0 mm 0.00 in0.0 mm
06:15 AM 28.8°F-1.8°C 28.5°F-1.9°C 99% 1.6 mph SE2.6 kmh SE 4.5 mph7.2 kmh 30.43 in1030.5 mb 0.00 in0.0 mm 0.00 in0.0 mm 0.00 in0.0 mm
06:30 AM 28.8°F-1.8°C 28.5°F-1.9°C 99% 2.2 mph SSE3.5 kmh SSE 4.5 mph7.2 kmh 30.43 in1030.5 mb 0.00 in0.0 mm 0.00 in0.0 mm 0.00 in0.0 mm
06:45 AM 28.9°F-1.7°C 28.7°F-1.8°C 99% 1.6 mph SE2.6 kmh SE 3.8 mph6.1 kmh 30.43 in1030.5 mb 0.00 in0.0 mm 0.00 in0.0 mm 0.00 in0.0 mm
07:00 AM 28.8°F-1.8°C 28.5°F-1.9°C 99% 1.6 mph SE2.6 kmh SE 3.8 mph6.1 kmh 30.43 in1030.5 mb 0.00 in0.0 mm 0.00 in0.0 mm 0.00 in0.0 mm
07:15 AM 29.1°F-1.6°C 28.9°F-1.7°C 99% 1.6 mph SE2.6 kmh SE 4.5 mph7.2 kmh 30.43 in1030.5 mb 0.00 in0.0 mm 0.00 in0.0 mm 0.00 in0.0 mm
07:30 AM 29.5°F-1.4°C 29.2°F-1.6°C 99% 1.6 mph SE2.6 kmh SE 3.8 mph6.1 kmh 30.43 in1030.5 mb 0.00 in0.0 mm 0.00 in0.0 mm 0.00 in0.0 mm
07:45 AM 30.2°F-1.0°C 30.0°F-1.1°C 99% 1.6 mph SE2.6 kmh SE 3.1 mph5.0 kmh 30.44 in1030.8 mb 0.00 in0.0 mm 0.00 in0.0 mm 0.00 in0.0 mm
08:00 AM 32.5°F0.3°C 32.3°F0.2°C 99% 1.6 mph SE2.6 kmh SE 6.0 mph9.7 kmh 30.43 in1030.5 mb 0.00 in0.0 mm 0.00 in0.0 mm 0.00 in0.0 mm
08:15 AM 35.4°F1.9°C 35.2°F1.8°C 99% 2.2 mph SE3.5 kmh SE 5.4 mph8.7 kmh 30.43 in1030.5 mb 0.00 in0.0 mm 0.00 in0.0 mm 0.00 in0.0 mm
08:30 AM 37.8°F3.2°C 37.5°F3.1°C 99% 2.2 mph SE3.5 kmh SE 6.0 mph9.7 kmh 30.44 in1030.8 mb 0.00 in0.0 mm 0.00 in0.0 mm 0.00 in0.0 mm
08:45 AM 39.7°F4.3°C 39.0°F3.9°C 97% 1.6 mph SE2.6 kmh SE 6.9 mph11.1 kmh 30.44 in1030.8 mb 0.00 in0.0 mm 0.00 in0.0 mm 0.00 in0.0 mm
09:00 AM 41.5°F5.3°C 39.9°F4.4°C 94% 3.1 mph SSE5.0 kmh SSE 6.9 mph11.1 kmh 30.44 in1030.8 mb 0.00 in0.0 mm 0.00 in0.0 mm 0.00 in0.0 mm
09:15 AM 43.0°F6.1°C 40.5°F4.7°C 91% 5.4 mph SSE8.7 kmh SSE 9.8 mph15.8 kmh 30.45 in1031.2 mb 0.00 in0.0 mm 0.00 in0.0 mm 0.00 in0.0 mm
09:30 AM 44.1°F6.7°C 40.7°F4.8°C 88% 3.1 mph S5.0 kmh S 8.3 mph13.4 kmh 30.45 in1031.2 mb 0.00 in0.0 mm 0.00 in0.0 mm 0.00 in0.0 mm
09:45 AM 45.5°F7.5°C 41.3°F5.2°C 85% 5.4 mph S8.7 kmh S 9.8 mph15.8 kmh 30.45 in1031.2 mb 0.00 in0.0 mm 0.00 in0.0 mm 0.00 in0.0 mm
10:00 AM 47.3°F8.5°C 42.4°F5.8°C 83% 5.4 mph S8.7 kmh S 10.7 mph17.2 kmh 30.46 in1031.5 mb 0.00 in0.0 mm 0.00 in0.0 mm 0.00 in0.0 mm
10:15 AM 48.9°F9.4°C 43.0°F6.1°C 80% 0.7 mph S1.1 kmh S 10.7 mph17.2 kmh 30.46 in1031.5 mb 0.00 in0.0 mm 0.00 in0.0 mm 0.00 in0.0 mm
10:30 AM 50.4°F10.2°C 43.1°F6.2°C 76% 7.6 mph S12.2 kmh S 10.7 mph17.2 kmh 30.45 in1031.2 mb 0.00 in0.0 mm 0.00 in0.0 mm 0.00 in0.0 mm
10:45 AM 51.6°F10.9°C 44.0°F6.7°C 75% 4.5 mph SSW7.2 kmh SSW 11.4 mph18.3 kmh 30.45 in1031.2 mb 0.00 in0.0 mm 0.00 in0.0 mm 0.00 in0.0 mm
11:00 AM 52.7°F11.5°C 44.3°F6.8°C 73% 8.3 mph S13.4 kmh S 11.4 mph18.3 kmh 30.45 in1031.2 mb 0.00 in0.0 mm 0.00 in0.0 mm 0.00 in0.0 mm
11:15 AM 54.1°F12.3°C 44.6°F7.0°C 70% 7.6 mph S12.2 kmh S 13.0 mph20.9 kmh 30.44 in1030.8 mb 0.00 in0.0 mm 0.00 in0.0 mm 0.00 in0.0 mm
11:30 AM 55.0°F12.8°C 45.1°F7.3°C 69% 2.2 mph SSW3.5 kmh SSW 9.8 mph15.8 kmh 30.43 in1030.5 mb 0.00 in0.0 mm 0.00 in0.0 mm 0.00 in0.0 mm
11:45 AM 56.1°F13.4°C 44.5°F6.9°C 65% 3.8 mph S6.1 kmh S 15.2 mph24.5 kmh 30.43 in1030.5 mb 0.00 in0.0 mm 0.00 in0.0 mm 0.00 in0.0 mm
12:00 PM 56.8°F13.8°C 44.4°F6.9°C 63% 6.0 mph SW9.7 kmh SW 12.1 mph19.5 kmh 30.43 in1030.5 mb 0.00 in0.0 mm 0.00 in0.0 mm 0.00 in0.0 mm
12:15 PM 57.7°F14.3°C 45.2°F7.3°C 63% 3.1 mph SSW5.0 kmh SSW 14.5 mph23.3 kmh 30.41 in1029.8 mb 0.00 in0.0 mm 0.00 in0.0 mm 0.00 in0.0 mm
12:30 PM 59.2°F15.1°C 45.8°F7.7°C 61% 4.5 mph SSW7.2 kmh SSW 11.4 mph18.3 kmh 30.41 in1029.8 mb 0.00 in0.0 mm 0.00 in0.0 mm 0.00 in0.0 mm
12:45 PM 59.7°F15.4°C 45.4°F7.4°C 59% 7.6 mph S12.2 kmh S 14.5 mph23.3 kmh 30.39 in1029.1 mb 0.00 in0.0 mm 0.00 in0.0 mm 0.00 in0.0 mm
01:00 PM 60.1°F15.6°C 45.3°F7.4°C 58% 5.4 mph SSW8.7 kmh SSW 14.5 mph23.3 kmh 30.39 in1029.1 mb 0.00 in0.0 mm 0.00 in0.0 mm 0.00 in0.0 mm
01:15 PM 60.6°F15.9°C 45.3°F7.4°C 57% 6.0 mph S9.7 kmh S 13.0 mph20.9 kmh 30.38 in1028.8 mb 0.00 in0.0 mm 0.00 in0.0 mm 0.00 in0.0 mm
01:30 PM 60.8°F16.0°C 44.5°F6.9°C 55% 6.9 mph S11.1 kmh S 13.0 mph20.9 kmh 30.38 in1028.8 mb 0.00 in0.0 mm 0.00 in0.0 mm 0.00 in0.0 mm
01:45 PM 61.3°F16.3°C 44.6°F7.0°C 54% 6.9 mph SSW11.1 kmh SSW 14.5 mph23.3 kmh 30.38 in1028.8 mb 0.00 in0.0 mm 0.00 in0.0 mm 0.00 in0.0 mm
02:00 PM 61.3°F16.3°C 45.0°F7.2°C 55% 3.8 mph SSW6.1 kmh SSW 15.9 mph25.6 kmh 30.36 in1028.1 mb 0.00 in0.0 mm 0.00 in0.0 mm 0.00 in0.0 mm
02:15 PM 61.9°F16.6°C 45.1°F7.3°C 54% 5.4 mph SW8.7 kmh SW 9.8 mph15.8 kmh 30.36 in1028.1 mb 0.00 in0.0 mm 0.00 in0.0 mm 0.00 in0.0 mm
02:30 PM 61.7°F16.5°C 44.4°F6.9°C 53% 3.8 mph S6.1 kmh S 13.0 mph20.9 kmh 30.36 in1028.1 mb 0.00 in0.0 mm 0.00 in0.0 mm 0.00 in0.0 mm
02:45 PM 61.9°F16.6°C 44.6°F7.0°C 53% 6.0 mph SW9.7 kmh SW 9.2 mph14.8 kmh 30.36 in1028.1 mb 0.00 in0.0 mm 0.00 in0.0 mm 0.00 in0.0 mm
03:00 PM 61.7°F16.5°C 43.9°F6.6°C 52% 4.5 mph SSW7.2 kmh SSW 13.0 mph20.9 kmh 30.36 in1028.1 mb 0.00 in0.0 mm 0.00 in0.0 mm 0.00 in0.0 mm
03:15 PM 61.5°F16.4°C 44.2°F6.8°C 53% 7.6 mph SSW12.2 kmh SSW 13.0 mph20.9 kmh 30.35 in1027.8 mb 0.00 in0.0 mm 0.00 in0.0 mm 0.00 in0.0 mm
03:30 PM 61.3°F16.3°C 44.1°F6.7°C 53% 4.5 mph S7.2 kmh S 11.4 mph18.3 kmh 30.36 in1028.1 mb 0.00 in0.0 mm 0.00 in0.0 mm 0.00 in0.0 mm
03:45 PM 61.0°F16.1°C 43.7°F6.5°C 53% 3.1 mph S5.0 kmh S 12.1 mph19.5 kmh 30.36 in1028.1 mb 0.00 in0.0 mm 0.00 in0.0 mm 0.00 in0.0 mm
04:00 PM 60.6°F15.9°C 43.9°F6.6°C 54% 4.5 mph SSW7.2 kmh SSW 12.1 mph19.5 kmh 30.35 in1027.8 mb 0.00 in0.0 mm 0.00 in0.0 mm 0.00 in0.0 mm
04:15 PM 60.3°F15.7°C 44.0°F6.7°C 55% 3.8 mph S6.1 kmh S 9.2 mph14.8 kmh 30.36 in1028.1 mb 0.00 in0.0 mm 0.00 in0.0 mm 0.00 in0.0 mm
04:30 PM 59.5°F15.3°C 43.4°F6.3°C 55% 4.5 mph S7.2 kmh S 9.2 mph14.8 kmh 30.36 in1028.1 mb 0.00 in0.0 mm 0.00 in0.0 mm 0.00 in0.0 mm
04:45 PM 57.9°F14.4°C 42.3°F5.7°C 56% 2.2 mph SSW3.5 kmh SSW 8.3 mph13.4 kmh 30.36 in1028.1 mb 0.00 in0.0 mm 0.00 in0.0 mm 0.00 in0.0 mm
05:00 PM 55.6°F13.1°C 41.0°F5.0°C 58% 2.2 mph S3.5 kmh S 6.9 mph11.1 kmh 30.35 in1027.8 mb 0.00 in0.0 mm 0.00 in0.0 mm 0.00 in0.0 mm
05:15 PM 53.4°F11.9°C 39.9°F4.4°C 60% 0.7 mph S1.1 kmh S 4.5 mph7.2 kmh 30.36 in1028.1 mb 0.00 in0.0 mm 0.00 in0.0 mm 0.00 in0.0 mm
05:30 PM 52.0°F11.1°C 39.4°F4.1°C 62% Calm Calm 3.1 mph5.0 kmh 30.36 in1028.1 mb 0.00 in0.0 mm 0.00 in0.0 mm 0.00 in0.0 mm
05:45 PM 50.4°F10.2°C 38.3°F3.5°C 63% 0.7 mph SE1.1 kmh SE 2.2 mph3.5 kmh 30.36 in1028.1 mb 0.00 in0.0 mm 0.00 in0.0 mm 0.00 in0.0 mm
06:00 PM 48.9°F9.4°C 37.7°F3.2°C 65% 0.7 mph SE1.1 kmh SE 2.2 mph3.5 kmh 30.36 in1028.1 mb 0.00 in0.0 mm 0.00 in0.0 mm 0.00 in0.0 mm
06:15 PM 47.8°F8.8°C 37.0°F2.8°C 66% 0.7 mph SSE1.1 kmh SSE 2.2 mph3.5 kmh 30.37 in1028.4 mb 0.00 in0.0 mm 0.00 in0.0 mm 0.00 in0.0 mm
06:30 PM 46.8°F8.2°C 36.4°F2.4°C 67% 0.7 mph S1.1 kmh S 3.8 mph6.1 kmh 30.37 in1028.4 mb 0.00 in0.0 mm 0.00 in0.0 mm 0.00 in0.0 mm
06:45 PM 45.7°F7.6°C 35.7°F2.1°C 68% 0.7 mph SSE1.1 kmh SSE 3.1 mph5.0 kmh 30.36 in1028.1 mb 0.00 in0.0 mm 0.00 in0.0 mm 0.00 in0.0 mm
07:00 PM 44.8°F7.1°C 35.2°F1.8°C 69% Calm Calm 2.2 mph3.5 kmh 30.37 in1028.4 mb 0.00 in0.0 mm 0.00 in0.0 mm 0.00 in0.0 mm
07:15 PM 44.2°F6.8°C 35.1°F1.7°C 70% 0.7 mph SE1.1 kmh SE 1.6 mph2.6 kmh 30.37 in1028.4 mb 0.00 in0.0 mm 0.00 in0.0 mm 0.00 in0.0 mm
07:30 PM 44.1°F6.7°C 34.9°F1.6°C 70% 1.6 mph S2.6 kmh S 3.8 mph6.1 kmh 30.37 in1028.4 mb 0.00 in0.0 mm 0.00 in0.0 mm 0.00 in0.0 mm
07:45 PM 43.5°F6.4°C 34.8°F1.6°C 71% 0.7 mph SE1.1 kmh SE 2.2 mph3.5 kmh 30.37 in1028.4 mb 0.00 in0.0 mm 0.00 in0.0 mm 0.00 in0.0 mm
08:00 PM 42.8°F6.0°C 34.1°F1.2°C 71% 0.7 mph SSE1.1 kmh SSE 3.1 mph5.0 kmh 30.38 in1028.8 mb 0.00 in0.0 mm 0.00 in0.0 mm 0.00 in0.0 mm
08:15 PM 42.4°F5.8°C 34.1°F1.2°C 72% 0.7 mph SE1.1 kmh SE 2.2 mph3.5 kmh 30.38 in1028.8 mb 0.00 in0.0 mm 0.00 in0.0 mm 0.00 in0.0 mm
08:30 PM 42.4°F5.8°C 34.1°F1.2°C 72% 0.7 mph SSE1.1 kmh SSE 3.8 mph6.1 kmh 30.38 in1028.8 mb 0.00 in0.0 mm 0.00 in0.0 mm 0.00 in0.0 mm
08:45 PM 42.1°F5.6°C 33.7°F0.9°C 72% 1.6 mph SSE2.6 kmh SSE 5.4 mph8.7 kmh 30.38 in1028.8 mb 0.00 in0.0 mm 0.00 in0.0 mm 0.00 in0.0 mm
09:00 PM 42.1°F5.6°C 34.1°F1.2°C 73% 3.1 mph S5.0 kmh S 7.6 mph12.2 kmh 30.39 in1029.1 mb 0.00 in0.0 mm 0.00 in0.0 mm 0.00 in0.0 mm
09:15 PM 42.6°F5.9°C 34.6°F1.4°C 73% 2.2 mph S3.5 kmh S 6.9 mph11.1 kmh 30.39 in1029.1 mb 0.00 in0.0 mm 0.00 in0.0 mm 0.00 in0.0 mm
09:30 PM 42.8°F6.0°C 34.8°F1.6°C 73% 1.6 mph S2.6 kmh S 7.6 mph12.2 kmh 30.39 in1029.1 mb 0.00 in0.0 mm 0.00 in0.0 mm 0.00 in0.0 mm
09:45 PM 42.4°F5.8°C 34.4°F1.3°C 73% 2.2 mph SSE3.5 kmh SSE 7.6 mph12.2 kmh 30.39 in1029.1 mb 0.00 in0.0 mm 0.00 in0.0 mm 0.00 in0.0 mm
10:00 PM 42.4°F5.8°C 34.8°F1.6°C 74% 2.2 mph S3.5 kmh S 6.9 mph11.1 kmh 30.39 in1029.1 mb 0.00 in0.0 mm 0.00 in0.0 mm 0.00 in0.0 mm
10:15 PM 42.1°F5.6°C 34.4°F1.3°C 74% 3.1 mph S5.0 kmh S 7.6 mph12.2 kmh 30.39 in1029.1 mb 0.00 in0.0 mm 0.00 in0.0 mm 0.00 in0.0 mm
10:30 PM 41.9°F5.5°C 34.6°F1.4°C 75% 1.6 mph S2.6 kmh S 6.0 mph9.7 kmh 30.39 in1029.1 mb 0.00 in0.0 mm 0.00 in0.0 mm 0.00 in0.0 mm
10:45 PM 41.0°F5.0°C 33.7°F0.9°C 75% 1.6 mph S2.6 kmh S 3.1 mph5.0 kmh 30.39 in1029.1 mb 0.00 in0.0 mm 0.00 in0.0 mm 0.00 in0.0 mm
11:00 PM 39.9°F4.4°C 33.0°F0.6°C 76% 0.7 mph S1.1 kmh S 3.8 mph6.1 kmh 30.39 in1029.1 mb 0.00 in0.0 mm 0.00 in0.0 mm 0.00 in0.0 mm
11:15 PM 39.2°F4.0°C 32.6°F0.3°C 77% 0.7 mph S1.1 kmh S 3.1 mph5.0 kmh 30.39 in1029.1 mb 0.00 in0.0 mm 0.00 in0.0 mm 0.00 in0.0 mm
11:30 PM 38.7°F3.7°C 32.1°F0.1°C 77% 1.6 mph S2.6 kmh S 4.5 mph7.2 kmh 30.39 in1029.1 mb 0.00 in0.0 mm 0.00 in0.0 mm 0.00 in0.0 mm
11:45 PM 38.1°F3.4°C 31.9°F-0.1°C 78% Calm Calm 1.6 mph2.6 kmh 30.39 in1029.1 mb 0.00 in0.0 mm 0.00 in0.0 mm 0.00 in0.0 mm